sensor_id;sensor_type;location;lat;lon;timestamp;P1;durP1;ratioP1;P2;durP2;ratioP2
22040;SDS011;11184;52.444;13.578;2023-05-10T00:02:01;6.40;;;5.85;;
22040;SDS011;11184;52.444;13.578;2023-05-10T00:04:46;5.82;;;5.20;;
22040;SDS011;11184;52.444;13.578;2023-05-10T00:07:30;7.55;;;6.80;;
22040;SDS011;11184;52.444;13.578;2023-05-10T00:10:15;6.90;;;6.30;;
22040;SDS011;11184;52.444;13.578;2023-05-10T00:13:00;7.85;;;5.90;;
22040;SDS011;11184;52.444;13.578;2023-05-10T00:15:44;7.32;;;6.22;;
22040;SDS011;11184;52.444;13.578;2023-05-10T00:18:29;6.30;;;5.78;;
22040;SDS011;11184;52.444;13.578;2023-05-10T00:21:13;6.78;;;6.18;;
22040;SDS011;11184;52.444;13.578;2023-05-10T00:23:58;9.68;;;6.40;;
22040;SDS011;11184;52.444;13.578;2023-05-10T00:26:43;7.70;;;6.90;;
22040;SDS011;11184;52.444;13.578;2023-05-10T00:29:28;7.78;;;6.30;;
22040;SDS011;11184;52.444;13.578;2023-05-10T00:32:13;6.65;;;6.07;;
22040;SDS011;11184;52.444;13.578;2023-05-10T00:34:57;6.82;;;6.25;;
22040;SDS011;11184;52.444;13.578;2023-05-10T00:37:42;9.27;;;6.97;;
22040;SDS011;11184;52.444;13.578;2023-05-10T00:40:26;7.93;;;6.80;;
22040;SDS011;11184;52.444;13.578;2023-05-10T00:43:11;8.10;;;6.75;;
22040;SDS011;11184;52.444;13.578;2023-05-10T00:45:56;7.30;;;6.60;;
22040;SDS011;11184;52.444;13.578;2023-05-10T00:48:42;7.25;;;6.65;;
22040;SDS011;11184;52.444;13.578;2023-05-10T00:51:27;7.15;;;6.25;;
22040;SDS011;11184;52.444;13.578;2023-05-10T00:54:12;6.95;;;6.45;;
22040;SDS011;11184;52.444;13.578;2023-05-10T00:56:58;8.18;;;5.75;;
22040;SDS011;11184;52.444;13.578;2023-05-10T00:59:43;7.57;;;6.82;;
22040;SDS011;11184;52.444;13.578;2023-05-10T01:02:28;7.30;;;6.53;;
22040;SDS011;11184;52.444;13.578;2023-05-10T01:05:13;7.93;;;6.50;;
22040;SDS011;11184;52.444;13.578;2023-05-10T01:07:57;7.30;;;6.60;;
22040;SDS011;11184;52.444;13.578;2023-05-10T01:10:42;10.93;;;6.70;;
22040;SDS011;11184;52.444;13.578;2023-05-10T01:16:11;6.53;;;5.97;;
22040;SDS011;11184;52.444;13.578;2023-05-10T01:18:56;7.40;;;6.60;;
22040;SDS011;11184;52.444;13.578;2023-05-10T01:21:57;6.22;;;5.65;;
22040;SDS011;11184;52.444;13.578;2023-05-10T01:33:46;7.60;;;5.55;;
22040;SDS011;11184;52.444;13.578;2023-05-10T01:36:35;6.53;;;5.90;;
22040;SDS011;11184;52.444;13.578;2023-05-10T01:39:24;8.13;;;6.57;;
22040;SDS011;11184;52.444;13.578;2023-05-10T01:42:10;6.68;;;5.45;;
22040;SDS011;11184;52.444;13.578;2023-05-10T01:45:00;6.25;;;5.65;;
22040;SDS011;11184;52.444;13.578;2023-05-10T01:47:48;7.25;;;5.85;;
22040;SDS011;11184;52.444;13.578;2023-05-10T01:50:35;6.63;;;6.10;;
22040;SDS011;11184;52.444;13.578;2023-05-10T01:53:20;6.70;;;6.10;;
22040;SDS011;11184;52.444;13.578;2023-05-10T01:56:05;10.40;;;6.13;;
22040;SDS011;11184;52.444;13.578;2023-05-10T01:58:51;7.63;;;6.72;;
22040;SDS011;11184;52.444;13.578;2023-05-10T02:01:37;5.70;;;5.18;;
22040;SDS011;11184;52.444;13.578;2023-05-10T02:04:22;8.73;;;5.70;;
22040;SDS011;11184;52.444;13.578;2023-05-10T02:07:08;7.10;;;6.50;;
22040;SDS011;11184;52.444;13.578;2023-05-10T02:09:53;7.80;;;6.20;;
22040;SDS011;11184;52.444;13.578;2023-05-10T02:12:42;8.82;;;6.18;;
22040;SDS011;11184;52.444;13.578;2023-05-10T02:15:27;10.38;;;6.85;;
22040;SDS011;11184;52.444;13.578;2023-05-10T02:18:13;7.45;;;6.18;;
22040;SDS011;11184;52.444;13.578;2023-05-10T02:20:58;7.03;;;6.43;;
22040;SDS011;11184;52.444;13.578;2023-05-10T02:23:43;8.60;;;6.85;;
22040;SDS011;11184;52.444;13.578;2023-05-10T02:26:28;8.13;;;7.05;;
22040;SDS011;11184;52.444;13.578;2023-05-10T02:29:13;6.75;;;5.80;;
22040;SDS011;11184;52.444;13.578;2023-05-10T02:31:59;6.63;;;5.85;;
22040;SDS011;11184;52.444;13.578;2023-05-10T02:34:44;9.77;;;5.72;;
22040;SDS011;11184;52.444;13.578;2023-05-10T02:37:29;6.80;;;5.97;;
22040;SDS011;11184;52.444;13.578;2023-05-10T02:40:15;8.60;;;6.55;;
22040;SDS011;11184;52.444;13.578;2023-05-10T02:43:01;7.22;;;6.50;;
22040;SDS011;11184;52.444;13.578;2023-05-10T02:45:46;8.45;;;7.10;;
22040;SDS011;11184;52.444;13.578;2023-05-10T02:48:31;7.22;;;6.53;;
22040;SDS011;11184;52.444;13.578;2023-05-10T02:51:16;8.63;;;5.95;;
22040;SDS011;11184;52.444;13.578;2023-05-10T02:54:19;6.78;;;6.13;;
22040;SDS011;11184;52.444;13.578;2023-05-10T02:57:04;7.43;;;6.32;;
22040;SDS011;11184;52.444;13.578;2023-05-10T02:59:50;6.75;;;5.85;;
22040;SDS011;11184;52.444;13.578;2023-05-10T03:02:34;6.43;;;5.82;;
22040;SDS011;11184;52.444;13.578;2023-05-10T03:05:20;8.52;;;5.78;;
22040;SDS011;11184;52.444;13.578;2023-05-10T03:08:05;6.95;;;5.38;;
22040;SDS011;11184;52.444;13.578;2023-05-10T03:11:12;6.28;;;5.78;;
22040;SDS011;11184;52.444;13.578;2023-05-10T03:14:06;6.45;;;5.50;;
22040;SDS011;11184;52.444;13.578;2023-05-10T03:16:56;8.73;;;6.63;;
22040;SDS011;11184;52.444;13.578;2023-05-10T03:20:03;6.57;;;5.93;;
22040;SDS011;11184;52.444;13.578;2023-05-10T03:22:50;9.05;;;6.38;;
22040;SDS011;11184;52.444;13.578;2023-05-10T03:25:35;8.48;;;5.07;;
22040;SDS011;11184;52.444;13.578;2023-05-10T03:28:21;5.93;;;5.32;;
22040;SDS011;11184;52.444;13.578;2023-05-10T03:31:08;5.32;;;4.82;;
22040;SDS011;11184;52.444;13.578;2023-05-10T03:33:54;8.45;;;6.22;;
22040;SDS011;11184;52.444;13.578;2023-05-10T03:36:38;6.25;;;5.30;;
22040;SDS011;11184;52.444;13.578;2023-05-10T03:39:23;8.63;;;5.55;;
22040;SDS011;11184;52.444;13.578;2023-05-10T03:42:08;9.23;;;5.63;;
22040;SDS011;11184;52.444;13.578;2023-05-10T03:44:55;6.25;;;5.65;;
22040;SDS011;11184;52.444;13.578;2023-05-10T03:47:40;6.70;;;5.68;;
22040;SDS011;11184;52.444;13.578;2023-05-10T03:50:24;8.85;;;5.55;;
22040;SDS011;11184;52.444;13.578;2023-05-10T03:53:09;5.97;;;4.93;;
22040;SDS011;11184;52.444;13.578;2023-05-10T03:55:54;7.53;;;6.57;;
22040;SDS011;11184;52.444;13.578;2023-05-10T03:58:38;6.43;;;5.78;;
22040;SDS011;11184;52.444;13.578;2023-05-10T04:01:23;7.82;;;5.82;;
22040;SDS011;11184;52.444;13.578;2023-05-10T04:04:08;8.68;;;5.15;;
22040;SDS011;11184;52.444;13.578;2023-05-10T04:06:52;6.03;;;5.40;;
22040;SDS011;11184;52.444;13.578;2023-05-10T04:09:37;4.88;;;4.47;;
22040;SDS011;11184;52.444;13.578;2023-05-10T04:12:21;6.32;;;5.20;;
22040;SDS011;11184;52.444;13.578;2023-05-10T04:15:06;7.60;;;4.80;;
22040;SDS011;11184;52.444;13.578;2023-05-10T04:17:51;7.45;;;5.53;;
22040;SDS011;11184;52.444;13.578;2023-05-10T04:20:37;6.13;;;5.40;;
22040;SDS011;11184;52.444;13.578;2023-05-10T04:23:21;5.75;;;5.15;;
22040;SDS011;11184;52.444;13.578;2023-05-10T04:26:07;8.75;;;6.00;;
22040;SDS011;11184;52.444;13.578;2023-05-10T04:28:52;13.23;;;5.85;;
22040;SDS011;11184;52.444;13.578;2023-05-10T04:31:36;5.88;;;4.70;;
22040;SDS011;11184;52.444;13.578;2023-05-10T04:34:21;12.90;;;6.38;;
22040;SDS011;11184;52.444;13.578;2023-05-10T04:37:07;7.03;;;4.95;;
22040;SDS011;11184;52.444;13.578;2023-05-10T04:39:52;5.35;;;4.65;;
22040;SDS011;11184;52.444;13.578;2023-05-10T04:42:36;5.13;;;4.57;;
22040;SDS011;11184;52.444;13.578;2023-05-10T04:45:21;5.45;;;4.95;;
22040;SDS011;11184;52.444;13.578;2023-05-10T04:48:06;4.85;;;4.38;;
22040;SDS011;11184;52.444;13.578;2023-05-10T04:50:50;5.90;;;4.53;;
22040;SDS011;11184;52.444;13.578;2023-05-10T04:53:35;9.55;;;5.10;;
22040;SDS011;11184;52.444;13.578;2023-05-10T04:56:19;10.75;;;5.30;;
22040;SDS011;11184;52.444;13.578;2023-05-10T04:59:05;5.50;;;5.03;;
22040;SDS011;11184;52.444;13.578;2023-05-10T05:01:50;4.88;;;4.30;;
22040;SDS011;11184;52.444;13.578;2023-05-10T05:04:34;6.32;;;4.82;;
22040;SDS011;11184;52.444;13.578;2023-05-10T05:07:19;10.60;;;4.32;;
22040;SDS011;11184;52.444;13.578;2023-05-10T05:10:07;7.32;;;4.68;;
22040;SDS011;11184;52.444;13.578;2023-05-10T05:12:52;6.22;;;4.70;;
22040;SDS011;11184;52.444;13.578;2023-05-10T05:15:37;6.57;;;3.88;;
22040;SDS011;11184;52.444;13.578;2023-05-10T05:18:22;7.28;;;4.75;;
22040;SDS011;11184;52.444;13.578;2023-05-10T05:21:16;4.57;;;4.15;;
22040;SDS011;11184;52.444;13.578;2023-05-10T05:24:01;8.07;;;5.35;;
22040;SDS011;11184;52.444;13.578;2023-05-10T05:26:45;5.32;;;4.50;;
22040;SDS011;11184;52.444;13.578;2023-05-10T05:29:31;6.25;;;3.53;;
22040;SDS011;11184;52.444;13.578;2023-05-10T05:32:15;5.05;;;3.38;;
22040;SDS011;11184;52.444;13.578;2023-05-10T05:35:00;6.57;;;3.88;;
22040;SDS011;11184;52.444;13.578;2023-05-10T05:37:44;3.67;;;2.63;;
22040;SDS011;11184;52.444;13.578;2023-05-10T05:40:29;4.43;;;4.03;;
22040;SDS011;11184;52.444;13.578;2023-05-10T05:43:14;5.13;;;4.18;;
22040;SDS011;11184;52.444;13.578;2023-05-10T05:45:59;4.55;;;3.55;;
22040;SDS011;11184;52.444;13.578;2023-05-10T05:48:43;3.67;;;3.10;;
22040;SDS011;11184;52.444;13.578;2023-05-10T05:51:28;4.22;;;3.65;;
22040;SDS011;11184;52.444;13.578;2023-05-10T05:54:12;9.32;;;8.15;;
22040;SDS011;11184;52.444;13.578;2023-05-10T05:56:57;3.67;;;3.15;;
22040;SDS011;11184;52.444;13.578;2023-05-10T05:59:42;3.90;;;3.58;;
22040;SDS011;11184;52.444;13.578;2023-05-10T06:02:27;4.10;;;2.40;;
22040;SDS011;11184;52.444;13.578;2023-05-10T06:05:12;4.07;;;2.72;;
22040;SDS011;11184;52.444;13.578;2023-05-10T06:07:59;3.88;;;3.42;;
22040;SDS011;11184;52.444;13.578;2023-05-10T06:10:44;3.53;;;2.70;;
22040;SDS011;11184;52.444;13.578;2023-05-10T06:13:29;7.38;;;2.92;;
22040;SDS011;11184;52.444;13.578;2023-05-10T06:16:15;6.05;;;3.40;;
22040;SDS011;11184;52.444;13.578;2023-05-10T06:19:01;2.70;;;2.35;;
22040;SDS011;11184;52.444;13.578;2023-05-10T06:21:46;8.60;;;2.95;;
22040;SDS011;11184;52.444;13.578;2023-05-10T06:24:31;3.60;;;2.47;;
22040;SDS011;11184;52.444;13.578;2023-05-10T06:27:15;4.07;;;2.28;;
22040;SDS011;11184;52.444;13.578;2023-05-10T06:30:00;4.10;;;2.67;;
22040;SDS011;11184;52.444;13.578;2023-05-10T06:32:46;4.55;;;3.60;;
22040;SDS011;11184;52.444;13.578;2023-05-10T06:35:30;4.30;;;2.88;;
22040;SDS011;11184;52.444;13.578;2023-05-10T06:38:17;3.95;;;3.00;;
22040;SDS011;11184;52.444;13.578;2023-05-10T06:41:01;3.42;;;2.72;;
22040;SDS011;11184;52.444;13.578;2023-05-10T06:43:46;6.18;;;4.13;;
22040;SDS011;11184;52.444;13.578;2023-05-10T06:46:31;2.78;;;2.33;;
22040;SDS011;11184;52.444;13.578;2023-05-10T06:49:16;4.22;;;2.70;;
22040;SDS011;11184;52.444;13.578;2023-05-10T06:52:00;5.95;;;2.60;;
22040;SDS011;11184;52.444;13.578;2023-05-10T06:54:45;3.88;;;2.83;;
22040;SDS011;11184;52.444;13.578;2023-05-10T06:57:30;4.32;;;2.42;;
22040;SDS011;11184;52.444;13.578;2023-05-10T07:00:14;8.13;;;2.33;;
22040;SDS011;11184;52.444;13.578;2023-05-10T07:02:59;3.33;;;2.35;;
22040;SDS011;11184;52.444;13.578;2023-05-10T07:05:44;3.45;;;2.42;;
22040;SDS011;11184;52.444;13.578;2023-05-10T07:08:29;4.05;;;2.35;;
22040;SDS011;11184;52.444;13.578;2023-05-10T07:11:14;5.07;;;2.58;;
22040;SDS011;11184;52.444;13.578;2023-05-10T07:13:58;4.07;;;1.98;;
22040;SDS011;11184;52.444;13.578;2023-05-10T07:16:43;8.82;;;3.13;;
22040;SDS011;11184;52.444;13.578;2023-05-10T07:19:28;4.35;;;3.10;;
22040;SDS011;11184;52.444;13.578;2023-05-10T07:22:13;4.07;;;3.10;;
22040;SDS011;11184;52.444;13.578;2023-05-10T07:24:57;5.10;;;4.15;;
22040;SDS011;11184;52.444;13.578;2023-05-10T07:27:42;3.53;;;2.38;;
22040;SDS011;11184;52.444;13.578;2023-05-10T07:30:27;5.25;;;2.88;;
22040;SDS011;11184;52.444;13.578;2023-05-10T07:33:12;7.20;;;1.98;;
22040;SDS011;11184;52.444;13.578;2023-05-10T07:35:57;5.00;;;2.75;;
22040;SDS011;11184;52.444;13.578;2023-05-10T07:38:42;2.83;;;2.35;;
22040;SDS011;11184;52.444;13.578;2023-05-10T07:41:26;3.75;;;2.22;;
22040;SDS011;11184;52.444;13.578;2023-05-10T07:44:11;2.92;;;2.25;;
22040;SDS011;11184;52.444;13.578;2023-05-10T07:46:56;2.65;;;2.20;;
22040;SDS011;11184;52.444;13.578;2023-05-10T07:49:40;4.45;;;2.20;;
22040;SDS011;11184;52.444;13.578;2023-05-10T07:52:25;3.30;;;2.95;;
22040;SDS011;11184;52.444;13.578;2023-05-10T07:55:10;4.22;;;2.88;;
22040;SDS011;11184;52.444;13.578;2023-05-10T07:57:55;3.10;;;2.80;;
22040;SDS011;11184;52.444;13.578;2023-05-10T08:00:39;10.18;;;2.25;;
22040;SDS011;11184;52.444;13.578;2023-05-10T08:03:24;7.65;;;3.85;;
22040;SDS011;11184;52.444;13.578;2023-05-10T08:06:09;10.18;;;2.20;;
22040;SDS011;11184;52.444;13.578;2023-05-10T08:08:53;4.38;;;2.15;;
22040;SDS011;11184;52.444;13.578;2023-05-10T08:11:38;3.50;;;2.40;;
22040;SDS011;11184;52.444;13.578;2023-05-10T08:14:23;9.43;;;2.33;;
22040;SDS011;11184;52.444;13.578;2023-05-10T08:17:08;3.05;;;2.47;;
22040;SDS011;11184;52.444;13.578;2023-05-10T08:19:52;5.63;;;2.42;;
22040;SDS011;11184;52.444;13.578;2023-05-10T08:22:37;2.45;;;2.10;;
22040;SDS011;11184;52.444;13.578;2023-05-10T08:25:22;3.63;;;2.45;;
22040;SDS011;11184;52.444;13.578;2023-05-10T08:28:06;2.83;;;1.95;;
22040;SDS011;11184;52.444;13.578;2023-05-10T08:30:51;3.22;;;2.15;;
22040;SDS011;11184;52.444;13.578;2023-05-10T08:33:35;4.00;;;2.00;;
22040;SDS011;11184;52.444;13.578;2023-05-10T08:36:20;2.58;;;2.17;;
22040;SDS011;11184;52.444;13.578;2023-05-10T08:39:07;2.75;;;2.33;;
22040;SDS011;11184;52.444;13.578;2023-05-10T08:41:53;6.72;;;2.63;;
22040;SDS011;11184;52.444;13.578;2023-05-10T08:44:38;3.00;;;2.75;;
22040;SDS011;11184;52.444;13.578;2023-05-10T08:47:23;3.42;;;2.63;;
22040;SDS011;11184;52.444;13.578;2023-05-10T08:50:07;2.95;;;2.28;;
22040;SDS011;11184;52.444;13.578;2023-05-10T08:52:53;3.05;;;2.20;;
22040;SDS011;11184;52.444;13.578;2023-05-10T08:55:40;2.85;;;2.25;;
22040;SDS011;11184;52.444;13.578;2023-05-10T08:58:26;3.65;;;2.30;;
22040;SDS011;11184;52.444;13.578;2023-05-10T09:01:10;4.10;;;2.45;;
22040;SDS011;11184;52.444;13.578;2023-05-10T09:03:57;3.60;;;1.88;;
22040;SDS011;11184;52.444;13.578;2023-05-10T09:06:42;2.92;;;2.03;;
22040;SDS011;11184;52.444;13.578;2023-05-10T09:09:26;3.85;;;1.95;;
22040;SDS011;11184;52.444;13.578;2023-05-10T09:12:11;6.63;;;2.65;;
22040;SDS011;11184;52.444;13.578;2023-05-10T09:14:59;6.97;;;3.30;;
22040;SDS011;11184;52.444;13.578;2023-05-10T09:17:44;4.13;;;2.53;;
22040;SDS011;11184;52.444;13.578;2023-05-10T09:20:29;7.78;;;2.33;;
22040;SDS011;11184;52.444;13.578;2023-05-10T09:23:14;5.20;;;2.08;;
22040;SDS011;11184;52.444;13.578;2023-05-10T09:26:05;3.58;;;2.47;;
22040;SDS011;11184;52.444;13.578;2023-05-10T09:28:50;6.88;;;4.03;;
22040;SDS011;11184;52.444;13.578;2023-05-10T09:34:32;3.40;;;2.20;;
22040;SDS011;11184;52.444;13.578;2023-05-10T09:37:19;3.17;;;2.22;;
22040;SDS011;11184;52.444;13.578;2023-05-10T09:40:14;3.03;;;2.25;;
22040;SDS011;11184;52.444;13.578;2023-05-10T09:43:03;3.60;;;2.15;;
22040;SDS011;11184;52.444;13.578;2023-05-10T09:45:50;7.15;;;3.55;;
22040;SDS011;11184;52.444;13.578;2023-05-10T09:48:39;3.83;;;2.25;;
22040;SDS011;11184;52.444;13.578;2023-05-10T09:51:26;6.53;;;2.75;;
22040;SDS011;11184;52.444;13.578;2023-05-10T09:54:15;5.80;;;2.28;;
22040;SDS011;11184;52.444;13.578;2023-05-10T09:57:01;3.85;;;1.95;;
22040;SDS011;11184;52.444;13.578;2023-05-10T09:59:45;5.20;;;2.92;;
22040;SDS011;11184;52.444;13.578;2023-05-10T10:02:31;3.53;;;2.45;;
22040;SDS011;11184;52.444;13.578;2023-05-10T10:05:16;4.00;;;2.25;;
22040;SDS011;11184;52.444;13.578;2023-05-10T10:08:04;6.03;;;2.70;;
22040;SDS011;11184;52.444;13.578;2023-05-10T10:10:49;2.75;;;2.13;;
22040;SDS011;11184;52.444;13.578;2023-05-10T10:13:34;2.92;;;1.88;;
22040;SDS011;11184;52.444;13.578;2023-05-10T10:16:19;3.97;;;1.95;;
22040;SDS011;11184;52.444;13.578;2023-05-10T10:19:05;10.68;;;6.75;;
22040;SDS011;11184;52.444;13.578;2023-05-10T10:21:50;3.08;;;2.17;;
22040;SDS011;11184;52.444;13.578;2023-05-10T10:24:35;5.63;;;3.20;;
22040;SDS011;11184;52.444;13.578;2023-05-10T10:36:08;15.60;;;1.85;;
22040;SDS011;11184;52.444;13.578;2023-05-10T10:38:54;5.38;;;2.22;;
22040;SDS011;11184;52.444;13.578;2023-05-10T10:41:53;2.65;;;2.30;;
22040;SDS011;11184;52.444;13.578;2023-05-10T10:44:38;2.25;;;1.98;;
22040;SDS011;11184;52.444;13.578;2023-05-10T10:47:25;2.65;;;2.15;;
22040;SDS011;11184;52.444;13.578;2023-05-10T10:50:16;5.28;;;3.55;;
22040;SDS011;11184;52.444;13.578;2023-05-10T10:53:09;5.28;;;2.15;;
22040;SDS011;11184;52.444;13.578;2023-05-10T10:56:10;4.95;;;2.78;;
22040;SDS011;11184;52.444;13.578;2023-05-10T10:58:58;2.65;;;1.88;;
22040;SDS011;11184;52.444;13.578;2023-05-10T11:01:43;7.65;;;1.98;;
22040;SDS011;11184;52.444;13.578;2023-05-10T11:04:28;11.15;;;2.00;;
22040;SDS011;11184;52.444;13.578;2023-05-10T11:07:16;3.92;;;1.90;;
22040;SDS011;11184;52.444;13.578;2023-05-10T11:10:04;3.17;;;2.10;;
22040;SDS011;11184;52.444;13.578;2023-05-10T11:15:47;6.35;;;3.38;;
22040;SDS011;11184;52.444;13.578;2023-05-10T11:18:33;3.28;;;1.73;;
22040;SDS011;11184;52.444;13.578;2023-05-10T11:21:18;2.67;;;1.98;;
22040;SDS011;11184;52.444;13.578;2023-05-10T11:24:09;9.43;;;2.03;;
22040;SDS011;11184;52.444;13.578;2023-05-10T11:26:57;4.50;;;2.03;;
22040;SDS011;11184;52.444;13.578;2023-05-10T11:29:42;5.32;;;1.90;;
22040;SDS011;11184;52.444;13.578;2023-05-10T11:32:27;4.82;;;2.08;;
22040;SDS011;11184;52.444;13.578;2023-05-10T11:35:12;5.18;;;1.98;;
22040;SDS011;11184;52.444;13.578;2023-05-10T11:37:57;4.68;;;1.80;;
22040;SDS011;11184;52.444;13.578;2023-05-10T11:40:42;6.07;;;1.92;;
22040;SDS011;11184;52.444;13.578;2023-05-10T11:43:27;6.07;;;2.25;;
22040;SDS011;11184;52.444;13.578;2023-05-10T11:46:15;7.60;;;2.10;;
22040;SDS011;11184;52.444;13.578;2023-05-10T11:49:00;7.97;;;2.58;;
22040;SDS011;11184;52.444;13.578;2023-05-10T11:51:47;6.32;;;1.92;;
22040;SDS011;11184;52.444;13.578;2023-05-10T11:54:31;11.15;;;2.50;;
22040;SDS011;11184;52.444;13.578;2023-05-10T11:57:18;4.93;;;2.15;;
22040;SDS011;11184;52.444;13.578;2023-05-10T12:00:04;4.18;;;1.92;;
22040;SDS011;11184;52.444;13.578;2023-05-10T12:02:49;3.30;;;1.45;;
22040;SDS011;11184;52.444;13.578;2023-05-10T12:05:34;4.32;;;2.42;;
22040;SDS011;11184;52.444;13.578;2023-05-10T12:08:21;2.33;;;1.77;;
22040;SDS011;11184;52.444;13.578;2023-05-10T12:11:06;4.95;;;1.58;;
22040;SDS011;11184;52.444;13.578;2023-05-10T12:13:52;3.00;;;1.58;;
22040;SDS011;11184;52.444;13.578;2023-05-10T12:16:37;6.22;;;1.67;;
22040;SDS011;11184;52.444;13.578;2023-05-10T12:19:22;5.43;;;1.85;;
22040;SDS011;11184;52.444;13.578;2023-05-10T12:22:06;3.97;;;1.40;;
22040;SDS011;11184;52.444;13.578;2023-05-10T12:24:51;3.35;;;1.42;;
22040;SDS011;11184;52.444;13.578;2023-05-10T12:27:35;4.40;;;1.52;;
22040;SDS011;11184;52.444;13.578;2023-05-10T12:30:24;3.50;;;1.50;;
22040;SDS011;11184;52.444;13.578;2023-05-10T12:33:10;2.90;;;1.67;;
22040;SDS011;11184;52.444;13.578;2023-05-10T12:35:54;3.33;;;1.85;;
22040;SDS011;11184;52.444;13.578;2023-05-10T12:38:43;3.50;;;1.27;;
22040;SDS011;11184;52.444;13.578;2023-05-10T12:41:31;2.97;;;1.70;;
22040;SDS011;11184;52.444;13.578;2023-05-10T12:44:16;2.95;;;1.75;;
22040;SDS011;11184;52.444;13.578;2023-05-10T12:47:01;2.85;;;1.50;;
22040;SDS011;11184;52.444;13.578;2023-05-10T12:49:45;5.35;;;1.77;;
22040;SDS011;11184;52.444;13.578;2023-05-10T12:52:30;1.85;;;1.33;;
22040;SDS011;11184;52.444;13.578;2023-05-10T12:55:15;1.55;;;1.20;;
22040;SDS011;11184;52.444;13.578;2023-05-10T12:58:00;1.42;;;1.10;;
22040;SDS011;11184;52.444;13.578;2023-05-10T13:00:45;4.93;;;1.73;;
22040;SDS011;11184;52.444;13.578;2023-05-10T13:03:29;5.63;;;1.70;;
22040;SDS011;11184;52.444;13.578;2023-05-10T13:06:14;2.38;;;1.52;;
22040;SDS011;11184;52.444;13.578;2023-05-10T13:08:59;2.58;;;1.60;;
22040;SDS011;11184;52.444;13.578;2023-05-10T13:11:43;3.20;;;2.28;;
22040;SDS011;11184;52.444;13.578;2023-05-10T13:14:28;1.65;;;1.38;;
22040;SDS011;11184;52.444;13.578;2023-05-10T13:17:13;3.80;;;1.40;;
22040;SDS011;11184;52.444;13.578;2023-05-10T13:19:58;3.10;;;2.25;;
22040;SDS011;11184;52.444;13.578;2023-05-10T13:22:43;3.10;;;2.20;;
22040;SDS011;11184;52.444;13.578;2023-05-10T13:25:28;2.60;;;1.60;;
22040;SDS011;11184;52.444;13.578;2023-05-10T13:28:13;3.15;;;1.98;;
22040;SDS011;11184;52.444;13.578;2023-05-10T13:30:58;2.58;;;1.40;;
22040;SDS011;11184;52.444;13.578;2023-05-10T13:33:43;4.20;;;2.50;;
22040;SDS011;11184;52.444;13.578;2023-05-10T13:36:28;3.20;;;1.85;;
22040;SDS011;11184;52.444;13.578;2023-05-10T13:39:12;1.67;;;1.33;;
22040;SDS011;11184;52.444;13.578;2023-05-10T13:41:57;2.75;;;1.30;;
22040;SDS011;11184;52.444;13.578;2023-05-10T13:44:42;2.53;;;1.38;;
22040;SDS011;11184;52.444;13.578;2023-05-10T13:47:26;3.05;;;1.80;;
22040;SDS011;11184;52.444;13.578;2023-05-10T13:50:11;5.55;;;1.48;;
22040;SDS011;11184;52.444;13.578;2023-05-10T13:52:55;2.15;;;1.90;;
22040;SDS011;11184;52.444;13.578;2023-05-10T13:55:40;1.77;;;1.48;;
22040;SDS011;11184;52.444;13.578;2023-05-10T13:58:25;3.63;;;2.15;;
22040;SDS011;11184;52.444;13.578;2023-05-10T14:01:10;2.22;;;1.48;;
22040;SDS011;11184;52.444;13.578;2023-05-10T14:03:55;3.72;;;1.83;;
22040;SDS011;11184;52.444;13.578;2023-05-10T14:06:40;2.30;;;1.45;;
22040;SDS011;11184;52.444;13.578;2023-05-10T14:09:24;2.45;;;1.85;;
22040;SDS011;11184;52.444;13.578;2023-05-10T14:12:09;3.55;;;1.42;;
22040;SDS011;11184;52.444;13.578;2023-05-10T14:14:54;4.30;;;1.50;;
22040;SDS011;11184;52.444;13.578;2023-05-10T14:17:38;6.30;;;1.90;;
22040;SDS011;11184;52.444;13.578;2023-05-10T14:20:23;3.85;;;2.00;;
22040;SDS011;11184;52.444;13.578;2023-05-10T14:23:07;2.15;;;1.60;;
22040;SDS011;11184;52.444;13.578;2023-05-10T14:25:52;5.03;;;1.40;;
22040;SDS011;11184;52.444;13.578;2023-05-10T14:28:37;6.43;;;1.95;;
22040;SDS011;11184;52.444;13.578;2023-05-10T14:31:22;2.30;;;1.35;;
22040;SDS011;11184;52.444;13.578;2023-05-10T14:34:08;3.00;;;1.63;;
22040;SDS011;11184;52.444;13.578;2023-05-10T14:36:53;3.95;;;1.77;;
22040;SDS011;11184;52.444;13.578;2023-05-10T14:39:39;3.75;;;1.35;;
22040;SDS011;11184;52.444;13.578;2023-05-10T14:42:23;4.28;;;2.03;;
22040;SDS011;11184;52.444;13.578;2023-05-10T14:45:08;2.38;;;1.83;;
22040;SDS011;11184;52.444;13.578;2023-05-10T14:47:53;3.90;;;1.55;;
22040;SDS011;11184;52.444;13.578;2023-05-10T14:50:38;5.18;;;2.85;;
22040;SDS011;11184;52.444;13.578;2023-05-10T14:53:23;6.53;;;1.33;;
22040;SDS011;11184;52.444;13.578;2023-05-10T14:56:07;1.67;;;1.30;;
22040;SDS011;11184;52.444;13.578;2023-05-10T14:58:52;3.83;;;1.75;;
22040;SDS011;11184;52.444;13.578;2023-05-10T15:01:36;2.15;;;1.83;;
22040;SDS011;11184;52.444;13.578;2023-05-10T15:04:21;3.17;;;1.63;;
22040;SDS011;11184;52.444;13.578;2023-05-10T15:07:06;6.32;;;1.88;;
22040;SDS011;11184;52.444;13.578;2023-05-10T15:09:51;3.20;;;1.80;;
22040;SDS011;11184;52.444;13.578;2023-05-10T15:12:36;2.88;;;1.40;;
22040;SDS011;11184;52.444;13.578;2023-05-10T15:15:20;1.95;;;1.60;;
22040;SDS011;11184;52.444;13.578;2023-05-10T15:18:05;5.32;;;1.75;;
22040;SDS011;11184;52.444;13.578;2023-05-10T15:20:50;4.53;;;1.88;;
22040;SDS011;11184;52.444;13.578;2023-05-10T15:23:34;4.80;;;1.13;;
22040;SDS011;11184;52.444;13.578;2023-05-10T15:26:19;3.22;;;1.30;;
22040;SDS011;11184;52.444;13.578;2023-05-10T15:29:05;2.13;;;1.45;;
22040;SDS011;11184;52.444;13.578;2023-05-10T15:31:50;4.38;;;1.92;;
22040;SDS011;11184;52.444;13.578;2023-05-10T15:34:35;1.90;;;1.55;;
22040;SDS011;11184;52.444;13.578;2023-05-10T15:37:19;3.25;;;1.58;;
22040;SDS011;11184;52.444;13.578;2023-05-10T15:40:04;1.70;;;1.10;;
22040;SDS011;11184;52.444;13.578;2023-05-10T15:42:50;2.30;;;1.95;;
22040;SDS011;11184;52.444;13.578;2023-05-10T15:45:34;3.72;;;1.50;;
22040;SDS011;11184;52.444;13.578;2023-05-10T15:48:19;2.55;;;1.38;;
22040;SDS011;11184;52.444;13.578;2023-05-10T15:51:03;3.47;;;1.38;;
22040;SDS011;11184;52.444;13.578;2023-05-10T15:53:48;3.53;;;1.90;;
22040;SDS011;11184;52.444;13.578;2023-05-10T15:56:33;2.22;;;1.75;;
22040;SDS011;11184;52.444;13.578;2023-05-10T15:59:17;10.50;;;2.00;;
22040;SDS011;11184;52.444;13.578;2023-05-10T16:02:02;5.00;;;1.70;;
22040;SDS011;11184;52.444;13.578;2023-05-10T16:04:46;5.30;;;1.20;;
22040;SDS011;11184;52.444;13.578;2023-05-10T16:07:31;1.67;;;1.38;;
22040;SDS011;11184;52.444;13.578;2023-05-10T16:10:15;5.35;;;1.85;;
22040;SDS011;11184;52.444;13.578;2023-05-10T16:13:00;4.55;;;1.55;;
22040;SDS011;11184;52.444;13.578;2023-05-10T16:15:46;3.45;;;1.50;;
22040;SDS011;11184;52.444;13.578;2023-05-10T16:18:31;3.33;;;1.77;;
22040;SDS011;11184;52.444;13.578;2023-05-10T16:21:15;1.83;;;1.48;;
22040;SDS011;11184;52.444;13.578;2023-05-10T16:24:02;3.00;;;1.20;;
22040;SDS011;11184;52.444;13.578;2023-05-10T16:26:47;6.50;;;2.17;;
22040;SDS011;11184;52.444;13.578;2023-05-10T16:29:31;3.65;;;1.70;;
22040;SDS011;11184;52.444;13.578;2023-05-10T16:32:16;2.00;;;1.60;;
22040;SDS011;11184;52.444;13.578;2023-05-10T16:35:00;2.90;;;1.75;;
22040;SDS011;11184;52.444;13.578;2023-05-10T16:37:46;5.90;;;2.00;;
22040;SDS011;11184;52.444;13.578;2023-05-10T16:40:31;11.45;;;1.65;;
22040;SDS011;11184;52.444;13.578;2023-05-10T16:43:15;4.95;;;1.63;;
22040;SDS011;11184;52.444;13.578;2023-05-10T16:46:00;3.33;;;2.00;;
22040;SDS011;11184;52.444;13.578;2023-05-10T16:48:45;5.90;;;1.80;;